sensor_id;sensor_type;location;lat;lon;timestamp;P1;durP1;ratioP1;P2;durP2;ratioP2
3653;SDS011;70277;54.302;10.064;2024-02-26T00:00:27;19.30;;;9.23;;
3653;SDS011;70277;54.302;10.064;2024-02-26T00:02:54;28.75;;;9.25;;
3653;SDS011;70277;54.302;10.064;2024-02-26T00:05:21;45.65;;;9.15;;
3653;SDS011;70277;54.302;10.064;2024-02-26T00:07:48;95.45;;;9.85;;
3653;SDS011;70277;54.302;10.064;2024-02-26T00:10:15;32.97;;;8.77;;
3653;SDS011;70277;54.302;10.064;2024-02-26T00:12:41;22.13;;;9.65;;
3653;SDS011;70277;54.302;10.064;2024-02-26T00:15:08;28.55;;;9.27;;
3653;SDS011;70277;54.302;10.064;2024-02-26T00:17:37;83.55;;;13.52;;
3653;SDS011;70277;54.302;10.064;2024-02-26T00:20:04;68.70;;;9.25;;
3653;SDS011;70277;54.302;10.064;2024-02-26T00:22:35;37.13;;;8.55;;
3653;SDS011;70277;54.302;10.064;2024-02-26T00:25:02;34.97;;;8.43;;
3653;SDS011;70277;54.302;10.064;2024-02-26T00:27:28;52.58;;;8.38;;
3653;SDS011;70277;54.302;10.064;2024-02-26T00:29:55;60.53;;;9.90;;
3653;SDS011;70277;54.302;10.064;2024-02-26T00:32:21;92.35;;;10.18;;
3653;SDS011;70277;54.302;10.064;2024-02-26T00:34:48;18.38;;;8.10;;
3653;SDS011;70277;54.302;10.064;2024-02-26T00:37:14;48.10;;;8.65;;
3653;SDS011;70277;54.302;10.064;2024-02-26T00:39:41;61.20;;;8.68;;
3653;SDS011;70277;54.302;10.064;2024-02-26T00:42:07;36.00;;;8.35;;
3653;SDS011;70277;54.302;10.064;2024-02-26T00:44:34;18.98;;;8.13;;
3653;SDS011;70277;54.302;10.064;2024-02-26T00:47:01;29.58;;;8.38;;
3653;SDS011;70277;54.302;10.064;2024-02-26T00:49:28;32.80;;;9.15;;
3653;SDS011;70277;54.302;10.064;2024-02-26T00:51:55;55.42;;;9.43;;
3653;SDS011;70277;54.302;10.064;2024-02-26T00:54:22;44.53;;;9.98;;
3653;SDS011;70277;54.302;10.064;2024-02-26T00:56:48;39.45;;;9.70;;
3653;SDS011;70277;54.302;10.064;2024-02-26T00:59:15;22.10;;;8.15;;
3653;SDS011;70277;54.302;10.064;2024-02-26T01:01:42;39.50;;;9.32;;
3653;SDS011;70277;54.302;10.064;2024-02-26T01:04:08;51.20;;;10.73;;
3653;SDS011;70277;54.302;10.064;2024-02-26T01:06:35;36.42;;;8.30;;
3653;SDS011;70277;54.302;10.064;2024-02-26T01:09:01;102.47;;;9.90;;
3653;SDS011;70277;54.302;10.064;2024-02-26T01:11:28;59.40;;;8.98;;
3653;SDS011;70277;54.302;10.064;2024-02-26T01:13:55;58.30;;;8.55;;
3653;SDS011;70277;54.302;10.064;2024-02-26T01:16:23;79.43;;;8.38;;
3653;SDS011;70277;54.302;10.064;2024-02-26T01:18:50;49.38;;;9.18;;
3653;SDS011;70277;54.302;10.064;2024-02-26T01:21:17;28.17;;;8.68;;
3653;SDS011;70277;54.302;10.064;2024-02-26T01:23:43;50.30;;;9.50;;
3653;SDS011;70277;54.302;10.064;2024-02-26T01:26:10;32.13;;;9.25;;
3653;SDS011;70277;54.302;10.064;2024-02-26T01:28:37;95.68;;;10.23;;
3653;SDS011;70277;54.302;10.064;2024-02-26T01:31:03;40.25;;;8.38;;
3653;SDS011;70277;54.302;10.064;2024-02-26T01:33:33;66.20;;;8.88;;
3653;SDS011;70277;54.302;10.064;2024-02-26T01:35:59;67.50;;;7.55;;
3653;SDS011;70277;54.302;10.064;2024-02-26T01:38:27;25.67;;;7.47;;
3653;SDS011;70277;54.302;10.064;2024-02-26T01:40:54;50.28;;;6.95;;
3653;SDS011;70277;54.302;10.064;2024-02-26T01:43:20;11.13;;;6.85;;
3653;SDS011;70277;54.302;10.064;2024-02-26T01:45:47;30.02;;;6.78;;
3653;SDS011;70277;54.302;10.064;2024-02-26T01:48:13;57.05;;;7.10;;
3653;SDS011;70277;54.302;10.064;2024-02-26T01:50:40;27.98;;;6.70;;
3653;SDS011;70277;54.302;10.064;2024-02-26T01:53:07;15.32;;;6.75;;
3653;SDS011;70277;54.302;10.064;2024-02-26T01:55:35;27.60;;;6.47;;
3653;SDS011;70277;54.302;10.064;2024-02-26T01:58:02;20.00;;;6.60;;
3653;SDS011;70277;54.302;10.064;2024-02-26T02:00:29;31.48;;;6.82;;
3653;SDS011;70277;54.302;10.064;2024-02-26T02:02:56;21.58;;;6.65;;
3653;SDS011;70277;54.302;10.064;2024-02-26T02:05:23;10.30;;;5.95;;
3653;SDS011;70277;54.302;10.064;2024-02-26T02:07:50;17.58;;;5.88;;
3653;SDS011;70277;54.302;10.064;2024-02-26T02:10:19;12.85;;;5.68;;
3653;SDS011;70277;54.302;10.064;2024-02-26T02:12:49;17.42;;;6.60;;
3653;SDS011;70277;54.302;10.064;2024-02-26T02:15:16;12.45;;;6.15;;
3653;SDS011;70277;54.302;10.064;2024-02-26T02:17:43;13.55;;;6.13;;
3653;SDS011;70277;54.302;10.064;2024-02-26T02:20:19;13.48;;;6.88;;
3653;SDS011;70277;54.302;10.064;2024-02-26T02:22:50;11.38;;;6.63;;
3653;SDS011;70277;54.302;10.064;2024-02-26T02:25:17;35.92;;;6.88;;
3653;SDS011;70277;54.302;10.064;2024-02-26T02:27:43;12.00;;;6.28;;
3653;SDS011;70277;54.302;10.064;2024-02-26T02:30:10;12.20;;;5.90;;
3653;SDS011;70277;54.302;10.064;2024-02-26T02:32:37;24.00;;;6.97;;
3653;SDS011;70277;54.302;10.064;2024-02-26T02:35:07;16.02;;;6.00;;
3653;SDS011;70277;54.302;10.064;2024-02-26T02:37:33;11.15;;;7.45;;
3653;SDS011;70277;54.302;10.064;2024-02-26T02:40:00;17.88;;;6.50;;
3653;SDS011;70277;54.302;10.064;2024-02-26T02:42:27;27.38;;;6.85;;
3653;SDS011;70277;54.302;10.064;2024-02-26T02:44:53;21.75;;;6.50;;
3653;SDS011;70277;54.302;10.064;2024-02-26T02:47:20;15.80;;;6.82;;
3653;SDS011;70277;54.302;10.064;2024-02-26T02:49:47;21.48;;;6.80;;
3653;SDS011;70277;54.302;10.064;2024-02-26T02:52:13;22.23;;;6.50;;
3653;SDS011;70277;54.302;10.064;2024-02-26T02:54:41;26.45;;;6.35;;
3653;SDS011;70277;54.302;10.064;2024-02-26T02:57:08;9.23;;;6.05;;
3653;SDS011;70277;54.302;10.064;2024-02-26T02:59:36;8.57;;;5.80;;
3653;SDS011;70277;54.302;10.064;2024-02-26T03:02:03;10.27;;;6.80;;
3653;SDS011;70277;54.302;10.064;2024-02-26T03:04:30;10.27;;;6.70;;
3653;SDS011;70277;54.302;10.064;2024-02-26T03:06:58;10.50;;;6.63;;
3653;SDS011;70277;54.302;10.064;2024-02-26T03:09:24;24.67;;;6.05;;
3653;SDS011;70277;54.302;10.064;2024-02-26T03:11:51;23.17;;;6.45;;
3653;SDS011;70277;54.302;10.064;2024-02-26T03:14:17;8.80;;;5.60;;
3653;SDS011;70277;54.302;10.064;2024-02-26T03:16:44;25.27;;;6.38;;
3653;SDS011;70277;54.302;10.064;2024-02-26T03:19:10;23.58;;;6.88;;
3653;SDS011;70277;54.302;10.064;2024-02-26T03:21:40;23.65;;;6.45;;
3653;SDS011;70277;54.302;10.064;2024-02-26T03:24:07;18.50;;;6.38;;
3653;SDS011;70277;54.302;10.064;2024-02-26T03:26:36;11.55;;;5.68;;
3653;SDS011;70277;54.302;10.064;2024-02-26T03:29:03;12.73;;;6.45;;
3653;SDS011;70277;54.302;10.064;2024-02-26T03:31:30;10.25;;;6.60;;
3653;SDS011;70277;54.302;10.064;2024-02-26T03:33:57;13.60;;;6.30;;
3653;SDS011;70277;54.302;10.064;2024-02-26T03:36:23;15.88;;;6.57;;
3653;SDS011;70277;54.302;10.064;2024-02-26T03:38:50;20.27;;;5.80;;
3653;SDS011;70277;54.302;10.064;2024-02-26T03:41:17;19.92;;;6.70;;
3653;SDS011;70277;54.302;10.064;2024-02-26T03:43:43;19.90;;;6.15;;
3653;SDS011;70277;54.302;10.064;2024-02-26T03:46:11;20.23;;;6.75;;
3653;SDS011;70277;54.302;10.064;2024-02-26T03:48:42;17.65;;;6.53;;
3653;SDS011;70277;54.302;10.064;2024-02-26T03:51:09;17.88;;;6.68;;
3653;SDS011;70277;54.302;10.064;2024-02-26T03:53:38;11.32;;;6.35;;
3653;SDS011;70277;54.302;10.064;2024-02-26T03:56:05;16.33;;;6.28;;
3653;SDS011;70277;54.302;10.064;2024-02-26T03:58:32;13.27;;;5.88;;
3653;SDS011;70277;54.302;10.064;2024-02-26T04:00:59;9.25;;;5.97;;
3653;SDS011;70277;54.302;10.064;2024-02-26T04:03:27;20.15;;;6.10;;
3653;SDS011;70277;54.302;10.064;2024-02-26T04:05:53;10.02;;;6.10;;
3653;SDS011;70277;54.302;10.064;2024-02-26T04:08:20;11.70;;;5.90;;
3653;SDS011;70277;54.302;10.064;2024-02-26T04:10:47;15.50;;;5.65;;
3653;SDS011;70277;54.302;10.064;2024-02-26T04:13:13;23.45;;;6.32;;
3653;SDS011;70277;54.302;10.064;2024-02-26T04:15:40;24.73;;;6.05;;
3653;SDS011;70277;54.302;10.064;2024-02-26T04:18:07;9.70;;;5.38;;
3653;SDS011;70277;54.302;10.064;2024-02-26T04:20:34;16.30;;;6.30;;
3653;SDS011;70277;54.302;10.064;2024-02-26T04:23:00;14.50;;;5.78;;
3653;SDS011;70277;54.302;10.064;2024-02-26T04:25:27;17.88;;;5.85;;
3653;SDS011;70277;54.302;10.064;2024-02-26T04:27:55;24.23;;;5.35;;
3653;SDS011;70277;54.302;10.064;2024-02-26T04:30:21;20.10;;;6.75;;
3653;SDS011;70277;54.302;10.064;2024-02-26T04:32:48;32.10;;;6.20;;
3653;SDS011;70277;54.302;10.064;2024-02-26T04:35:14;27.20;;;6.00;;
3653;SDS011;70277;54.302;10.064;2024-02-26T04:37:41;18.25;;;5.18;;
3653;SDS011;70277;54.302;10.064;2024-02-26T04:40:07;21.48;;;6.50;;
3653;SDS011;70277;54.302;10.064;2024-02-26T04:42:34;29.25;;;6.28;;
3653;SDS011;70277;54.302;10.064;2024-02-26T04:45:01;53.58;;;5.68;;
3653;SDS011;70277;54.302;10.064;2024-02-26T04:47:28;60.90;;;5.30;;
3653;SDS011;70277;54.302;10.064;2024-02-26T04:49:56;39.17;;;6.13;;
3653;SDS011;70277;54.302;10.064;2024-02-26T04:52:22;10.15;;;5.55;;
3653;SDS011;70277;54.302;10.064;2024-02-26T04:54:49;27.75;;;5.05;;
3653;SDS011;70277;54.302;10.064;2024-02-26T04:57:15;56.20;;;5.45;;
3653;SDS011;70277;54.302;10.064;2024-02-26T04:59:44;18.10;;;5.50;;
3653;SDS011;70277;54.302;10.064;2024-02-26T05:02:12;15.45;;;5.25;;
3653;SDS011;70277;54.302;10.064;2024-02-26T05:04:39;24.58;;;5.50;;
3653;SDS011;70277;54.302;10.064;2024-02-26T05:07:06;16.90;;;5.47;;
3653;SDS011;70277;54.302;10.064;2024-02-26T05:09:33;27.23;;;5.57;;
3653;SDS011;70277;54.302;10.064;2024-02-26T05:11:59;27.88;;;5.47;;
3653;SDS011;70277;54.302;10.064;2024-02-26T05:14:26;16.10;;;4.80;;
3653;SDS011;70277;54.302;10.064;2024-02-26T05:16:52;21.70;;;6.03;;
3653;SDS011;70277;54.302;10.064;2024-02-26T05:19:19;18.35;;;5.32;;
3653;SDS011;70277;54.302;10.064;2024-02-26T05:21:46;14.65;;;5.35;;
3653;SDS011;70277;54.302;10.064;2024-02-26T05:24:15;12.35;;;5.35;;
3653;SDS011;70277;54.302;10.064;2024-02-26T05:26:43;16.08;;;5.32;;
3653;SDS011;70277;54.302;10.064;2024-02-26T05:29:11;12.55;;;5.60;;
3653;SDS011;70277;54.302;10.064;2024-02-26T05:31:37;10.35;;;5.68;;
3653;SDS011;70277;54.302;10.064;2024-02-26T05:34:04;31.17;;;5.72;;
3653;SDS011;70277;54.302;10.064;2024-02-26T05:36:31;16.10;;;5.57;;
3653;SDS011;70277;54.302;10.064;2024-02-26T05:39:00;8.70;;;5.78;;
3653;SDS011;70277;54.302;10.064;2024-02-26T05:41:27;8.43;;;5.97;;
3653;SDS011;70277;54.302;10.064;2024-02-26T05:43:54;7.85;;;5.32;;
3653;SDS011;70277;54.302;10.064;2024-02-26T05:46:20;14.65;;;5.75;;
3653;SDS011;70277;54.302;10.064;2024-02-26T05:48:48;7.85;;;5.47;;
3653;SDS011;70277;54.302;10.064;2024-02-26T05:51:17;8.80;;;5.80;;
3653;SDS011;70277;54.302;10.064;2024-02-26T05:53:44;8.70;;;5.47;;
3653;SDS011;70277;54.302;10.064;2024-02-26T05:56:10;9.00;;;5.95;;
3653;SDS011;70277;54.302;10.064;2024-02-26T05:58:37;12.82;;;5.93;;
3653;SDS011;70277;54.302;10.064;2024-02-26T06:01:04;9.85;;;5.85;;
3653;SDS011;70277;54.302;10.064;2024-02-26T06:03:30;8.65;;;5.80;;
3653;SDS011;70277;54.302;10.064;2024-02-26T06:05:57;9.13;;;6.18;;
3653;SDS011;70277;54.302;10.064;2024-02-26T06:08:24;8.70;;;5.80;;
3653;SDS011;70277;54.302;10.064;2024-02-26T06:10:50;8.77;;;5.97;;
3653;SDS011;70277;54.302;10.064;2024-02-26T06:13:17;8.73;;;5.75;;
3653;SDS011;70277;54.302;10.064;2024-02-26T06:15:43;10.23;;;6.68;;
3653;SDS011;70277;54.302;10.064;2024-02-26T06:18:10;7.50;;;5.85;;
3653;SDS011;70277;54.302;10.064;2024-02-26T06:20:36;9.70;;;6.22;;
3653;SDS011;70277;54.302;10.064;2024-02-26T06:23:03;8.25;;;6.15;;
3653;SDS011;70277;54.302;10.064;2024-02-26T06:25:29;8.23;;;5.95;;
3653;SDS011;70277;54.302;10.064;2024-02-26T06:27:56;10.18;;;6.13;;
3653;SDS011;70277;54.302;10.064;2024-02-26T06:30:23;10.13;;;6.40;;
3653;SDS011;70277;54.302;10.064;2024-02-26T06:32:49;9.45;;;6.18;;
3653;SDS011;70277;54.302;10.064;2024-02-26T06:35:16;8.73;;;5.97;;
3653;SDS011;70277;54.302;10.064;2024-02-26T06:37:42;8.93;;;6.05;;
3653;SDS011;70277;54.302;10.064;2024-02-26T06:40:09;10.93;;;6.47;;
3653;SDS011;70277;54.302;10.064;2024-02-26T06:42:36;11.88;;;6.38;;
3653;SDS011;70277;54.302;10.064;2024-02-26T06:45:03;7.43;;;6.00;;
3653;SDS011;70277;54.302;10.064;2024-02-26T06:47:30;8.25;;;6.13;;
3653;SDS011;70277;54.302;10.064;2024-02-26T06:49:57;8.95;;;6.03;;
3653;SDS011;70277;54.302;10.064;2024-02-26T06:52:24;10.95;;;6.88;;
3653;SDS011;70277;54.302;10.064;2024-02-26T06:54:52;12.30;;;7.65;;
3653;SDS011;70277;54.302;10.064;2024-02-26T06:57:19;13.98;;;7.68;;
3653;SDS011;70277;54.302;10.064;2024-02-26T06:59:46;12.80;;;7.40;;
3653;SDS011;70277;54.302;10.064;2024-02-26T07:02:13;11.93;;;7.10;;
3653;SDS011;70277;54.302;10.064;2024-02-26T07:04:40;11.15;;;7.22;;
3653;SDS011;70277;54.302;10.064;2024-02-26T07:07:07;12.25;;;7.05;;
3653;SDS011;70277;54.302;10.064;2024-02-26T07:09:34;10.57;;;7.10;;
3653;SDS011;70277;54.302;10.064;2024-02-26T07:12:01;14.05;;;7.40;;
3653;SDS011;70277;54.302;10.064;2024-02-26T07:14:28;14.43;;;7.88;;
3653;SDS011;70277;54.302;10.064;2024-02-26T07:16:55;10.57;;;6.70;;
3653;SDS011;70277;54.302;10.064;2024-02-26T07:19:22;24.35;;;7.88;;
3653;SDS011;70277;54.302;10.064;2024-02-26T07:21:49;15.00;;;7.20;;
3653;SDS011;70277;54.302;10.064;2024-02-26T07:24:15;23.98;;;8.07;;
3653;SDS011;70277;54.302;10.064;2024-02-26T07:26:42;12.70;;;7.65;;
3653;SDS011;70277;54.302;10.064;2024-02-26T07:29:08;29.52;;;8.10;;
3653;SDS011;70277;54.302;10.064;2024-02-26T07:31:35;52.33;;;7.85;;
3653;SDS011;70277;54.302;10.064;2024-02-26T07:34:02;59.20;;;8.32;;
3653;SDS011;70277;54.302;10.064;2024-02-26T07:36:29;90.93;;;8.98;;
3653;SDS011;70277;54.302;10.064;2024-02-26T07:38:55;55.80;;;8.82;;
3653;SDS011;70277;54.302;10.064;2024-02-26T07:41:22;86.15;;;9.65;;
3653;SDS011;70277;54.302;10.064;2024-02-26T07:43:48;54.58;;;8.95;;
3653;SDS011;70277;54.302;10.064;2024-02-26T07:46:15;45.15;;;8.95;;
3653;SDS011;70277;54.302;10.064;2024-02-26T07:48:41;34.67;;;7.47;;
3653;SDS011;70277;54.302;10.064;2024-02-26T07:51:08;56.83;;;8.43;;
3653;SDS011;70277;54.302;10.064;2024-02-26T07:53:35;45.28;;;9.05;;
3653;SDS011;70277;54.302;10.064;2024-02-26T07:56:02;58.20;;;8.80;;
3653;SDS011;70277;54.302;10.064;2024-02-26T07:58:29;65.20;;;8.60;;
3653;SDS011;70277;54.302;10.064;2024-02-26T08:00:56;56.42;;;8.88;;
3653;SDS011;70277;54.302;10.064;2024-02-26T08:03:22;37.10;;;8.43;;
3653;SDS011;70277;54.302;10.064;2024-02-26T08:05:49;29.80;;;8.35;;
3653;SDS011;70277;54.302;10.064;2024-02-26T08:08:17;50.80;;;9.07;;
3653;SDS011;70277;54.302;10.064;2024-02-26T08:10:43;45.50;;;8.20;;
3653;SDS011;70277;54.302;10.064;2024-02-26T08:13:10;45.70;;;8.32;;
3653;SDS011;70277;54.302;10.064;2024-02-26T08:15:36;27.88;;;8.13;;
3653;SDS011;70277;54.302;10.064;2024-02-26T08:18:06;27.52;;;8.52;;
3653;SDS011;70277;54.302;10.064;2024-02-26T08:20:32;54.10;;;9.20;;
3653;SDS011;70277;54.302;10.064;2024-02-26T08:22:59;47.63;;;7.93;;
3653;SDS011;70277;54.302;10.064;2024-02-26T08:25:25;31.33;;;7.43;;
3653;SDS011;70277;54.302;10.064;2024-02-26T08:27:52;27.60;;;7.05;;
3653;SDS011;70277;54.302;10.064;2024-02-26T08:30:19;31.77;;;6.68;;
3653;SDS011;70277;54.302;10.064;2024-02-26T08:32:46;45.60;;;7.35;;
3653;SDS011;70277;54.302;10.064;2024-02-26T08:35:17;33.97;;;6.80;;
3653;SDS011;70277;54.302;10.064;2024-02-26T08:37:45;19.83;;;6.68;;
3653;SDS011;70277;54.302;10.064;2024-02-26T08:40:12;39.08;;;6.65;;
3653;SDS011;70277;54.302;10.064;2024-02-26T08:42:39;46.58;;;6.50;;
3653;SDS011;70277;54.302;10.064;2024-02-26T08:45:07;32.50;;;6.32;;
3653;SDS011;70277;54.302;10.064;2024-02-26T08:47:34;38.67;;;6.20;;
3653;SDS011;70277;54.302;10.064;2024-02-26T08:50:01;52.80;;;4.65;;
3653;SDS011;70277;54.302;10.064;2024-02-26T08:52:28;54.95;;;5.65;;
3653;SDS011;70277;54.302;10.064;2024-02-26T08:54:55;80.57;;;7.00;;
3653;SDS011;70277;54.302;10.064;2024-02-26T08:57:21;119.07;;;8.07;;
3653;SDS011;70277;54.302;10.064;2024-02-26T08:59:48;74.22;;;6.25;;
3653;SDS011;70277;54.302;10.064;2024-02-26T09:02:14;85.60;;;6.30;;
3653;SDS011;70277;54.302;10.064;2024-02-26T09:04:41;50.30;;;5.47;;
3653;SDS011;70277;54.302;10.064;2024-02-26T09:07:08;110.65;;;6.32;;
3653;SDS011;70277;54.302;10.064;2024-02-26T09:09:34;29.20;;;5.65;;
3653;SDS011;70277;54.302;10.064;2024-02-26T09:12:01;38.13;;;7.00;;
3653;SDS011;70277;54.302;10.064;2024-02-26T09:14:28;41.67;;;7.72;;
3653;SDS011;70277;54.302;10.064;2024-02-26T09:16:55;51.50;;;6.53;;
3653;SDS011;70277;54.302;10.064;2024-02-26T09:19:21;31.92;;;5.78;;
3653;SDS011;70277;54.302;10.064;2024-02-26T09:21:49;25.80;;;6.43;;
3653;SDS011;70277;54.302;10.064;2024-02-26T09:24:15;25.92;;;6.25;;
3653;SDS011;70277;54.302;10.064;2024-02-26T09:26:42;18.90;;;5.15;;
3653;SDS011;70277;54.302;10.064;2024-02-26T09:29:08;45.08;;;6.85;;
3653;SDS011;70277;54.302;10.064;2024-02-26T09:31:35;33.83;;;5.55;;
3653;SDS011;70277;54.302;10.064;2024-02-26T09:34:02;39.20;;;8.32;;
3653;SDS011;70277;54.302;10.064;2024-02-26T09:36:29;25.08;;;6.78;;
3653;SDS011;70277;54.302;10.064;2024-02-26T09:38:56;21.83;;;6.10;;
3653;SDS011;70277;54.302;10.064;2024-02-26T09:41:30;42.00;;;6.78;;
3653;SDS011;70277;54.302;10.064;2024-02-26T09:43:57;25.10;;;6.60;;
3653;SDS011;70277;54.302;10.064;2024-02-26T09:46:25;22.23;;;6.90;;
3653;SDS011;70277;54.302;10.064;2024-02-26T09:48:52;27.88;;;6.72;;
3653;SDS011;70277;54.302;10.064;2024-02-26T09:51:20;16.98;;;6.53;;
3653;SDS011;70277;54.302;10.064;2024-02-26T09:53:52;27.90;;;6.88;;
3653;SDS011;70277;54.302;10.064;2024-02-26T09:56:19;17.83;;;7.38;;
3653;SDS011;70277;54.302;10.064;2024-02-26T09:58:46;19.60;;;7.22;;
3653;SDS011;70277;54.302;10.064;2024-02-26T10:01:19;16.45;;;7.53;;
3653;SDS011;70277;54.302;10.064;2024-02-26T10:03:50;12.35;;;7.25;;
3653;SDS011;70277;54.302;10.064;2024-02-26T10:06:23;12.25;;;7.20;;
3653;SDS011;70277;54.302;10.064;2024-02-26T10:08:52;12.73;;;7.85;;
3653;SDS011;70277;54.302;10.064;2024-02-26T10:11:20;12.25;;;7.03;;
3653;SDS011;70277;54.302;10.064;2024-02-26T10:13:48;12.70;;;7.30;;
3653;SDS011;70277;54.302;10.064;2024-02-26T10:16:15;9.27;;;6.05;;
3653;SDS011;70277;54.302;10.064;2024-02-26T10:18:46;9.15;;;6.20;;
3653;SDS011;70277;54.302;10.064;2024-02-26T10:21:24;11.82;;;6.15;;
3653;SDS011;70277;54.302;10.064;2024-02-26T10:23:51;11.05;;;5.63;;
3653;SDS011;70277;54.302;10.064;2024-02-26T10:26:18;8.70;;;4.97;;
3653;SDS011;70277;54.302;10.064;2024-02-26T10:28:45;7.55;;;5.43;;
3653;SDS011;70277;54.302;10.064;2024-02-26T10:31:17;12.02;;;6.07;;
3653;SDS011;70277;54.302;10.064;2024-02-26T10:33:44;8.25;;;5.82;;
3653;SDS011;70277;54.302;10.064;2024-02-26T10:36:12;8.32;;;6.15;;
3653;SDS011;70277;54.302;10.064;2024-02-26T10:38:38;9.70;;;6.20;;
3653;SDS011;70277;54.302;10.064;2024-02-26T10:41:08;8.55;;;6.18;;
3653;SDS011;70277;54.302;10.064;2024-02-26T10:43:39;8.95;;;6.00;;
3653;SDS011;70277;54.302;10.064;2024-02-26T10:46:06;8.60;;;6.40;;
3653;SDS011;70277;54.302;10.064;2024-02-26T10:48:34;7.53;;;5.38;;
3653;SDS011;70277;54.302;10.064;2024-02-26T10:51:01;10.55;;;6.22;;
3653;SDS011;70277;54.302;10.064;2024-02-26T10:53:29;11.80;;;6.70;;
3653;SDS011;70277;54.302;10.064;2024-02-26T10:56:03;10.57;;;6.82;;
3653;SDS011;70277;54.302;10.064;2024-02-26T10:58:31;12.43;;;7.88;;
3653;SDS011;70277;54.302;10.064;2024-02-26T11:00:58;12.90;;;7.63;;
3653;SDS011;70277;54.302;10.064;2024-02-26T11:03:26;15.35;;;8.88;;
3653;SDS011;70277;54.302;10.064;2024-02-26T11:05:54;13.63;;;8.35;;
3653;SDS011;70277;54.302;10.064;2024-02-26T11:08:23;13.80;;;8.02;;
3653;SDS011;70277;54.302;10.064;2024-02-26T11:10:52;12.65;;;8.38;;
3653;SDS011;70277;54.302;10.064;2024-02-26T11:13:20;16.13;;;8.48;;
3653;SDS011;70277;54.302;10.064;2024-02-26T11:15:47;12.57;;;7.70;;
3653;SDS011;70277;54.302;10.064;2024-02-26T11:18:15;15.90;;;8.48;;
3653;SDS011;70277;54.302;10.064;2024-02-26T11:20:45;13.48;;;7.93;;
3653;SDS011;70277;54.302;10.064;2024-02-26T11:23:14;14.85;;;8.90;;
3653;SDS011;70277;54.302;10.064;2024-02-26T11:25:41;14.55;;;8.48;;
3653;SDS011;70277;54.302;10.064;2024-02-26T11:28:10;16.13;;;8.95;;
3653;SDS011;70277;54.302;10.064;2024-02-26T11:30:41;15.23;;;9.07;;
3653;SDS011;70277;54.302;10.064;2024-02-26T11:33:10;15.88;;;9.50;;
3653;SDS011;70277;54.302;10.064;2024-02-26T11:35:39;17.60;;;9.75;;
3653;SDS011;70277;54.302;10.064;2024-02-26T11:38:06;16.88;;;8.93;;
3653;SDS011;70277;54.302;10.064;2024-02-26T11:40:33;16.17;;;8.95;;
3653;SDS011;70277;54.302;10.064;2024-02-26T11:43:05;15.82;;;8.63;;
3653;SDS011;70277;54.302;10.064;2024-02-26T11:48:14;14.50;;;8.25;;
3653;SDS011;70277;54.302;10.064;2024-02-26T11:50:55;16.55;;;8.60;;
3653;SDS011;70277;54.302;10.064;2024-02-26T11:53:25;13.80;;;8.40;;
3653;SDS011;70277;54.302;10.064;2024-02-26T11:58:46;13.43;;;8.38;;
3653;SDS011;70277;54.302;10.064;2024-02-26T12:04:22;14.48;;;7.45;;
3653;SDS011;70277;54.302;10.064;2024-02-26T12:07:00;10.15;;;6.57;;
3653;SDS011;70277;54.302;10.064;2024-02-26T12:09:38;7.35;;;5.43;;
3653;SDS011;70277;54.302;10.064;2024-02-26T12:12:07;25.17;;;6.78;;
3653;SDS011;70277;54.302;10.064;2024-02-26T12:14:38;8.90;;;5.88;;
3653;SDS011;70277;54.302;10.064;2024-02-26T12:17:07;8.18;;;5.85;;
3653;SDS011;70277;54.302;10.064;2024-02-26T12:19:45;7.28;;;5.68;;
3653;SDS011;70277;54.302;10.064;2024-02-26T12:22:12;8.95;;;5.70;;
3653;SDS011;70277;54.302;10.064;2024-02-26T12:24:39;7.22;;;5.53;;
3653;SDS011;70277;54.302;10.064;2024-02-26T12:27:06;8.52;;;5.75;;
3653;SDS011;70277;54.302;10.064;2024-02-26T12:29:32;10.18;;;5.50;;
3653;SDS011;70277;54.302;10.064;2024-02-26T12:31:59;8.23;;;6.00;;
3653;SDS011;70277;54.302;10.064;2024-02-26T12:34:28;8.45;;;6.35;;
3653;SDS011;70277;54.302;10.064;2024-02-26T12:36:55;9.43;;;5.68;;
3653;SDS011;70277;54.302;10.064;2024-02-26T12:39:21;9.25;;;6.53;;
3653;SDS011;70277;54.302;10.064;2024-02-26T12:41:48;10.30;;;6.40;;
3653;SDS011;70277;54.302;10.064;2024-02-26T12:44:16;8.68;;;6.20;;
3653;SDS011;70277;54.302;10.064;2024-02-26T12:46:43;7.55;;;4.75;;
3653;SDS011;70277;54.302;10.064;2024-02-26T12:49:14;7.05;;;5.43;;
3653;SDS011;70277;54.302;10.064;2024-02-26T12:51:43;9.73;;;5.47;;
3653;SDS011;70277;54.302;10.064;2024-02-26T12:54:10;7.43;;;5.13;;
3653;SDS011;70277;54.302;10.064;2024-02-26T12:56:37;9.55;;;5.38;;
3653;SDS011;70277;54.302;10.064;2024-02-26T12:59:04;10.32;;;5.90;;
3653;SDS011;70277;54.302;10.064;2024-02-26T13:01:31;8.27;;;5.97;;
3653;SDS011;70277;54.302;10.064;2024-02-26T13:03:57;7.93;;;5.30;;
3653;SDS011;70277;54.302;10.064;2024-02-26T13:06:27;5.88;;;4.78;;
3653;SDS011;70277;54.302;10.064;2024-02-26T13:08:57;9.93;;;4.93;;
3653;SDS011;70277;54.302;10.064;2024-02-26T13:11:28;6.95;;;5.45;;
3653;SDS011;70277;54.302;10.064;2024-02-26T13:13:55;8.20;;;5.25;;
3653;SDS011;70277;54.302;10.064;2024-02-26T13:16:23;7.50;;;5.68;;
3653;SDS011;70277;54.302;10.064;2024-02-26T13:18:51;7.57;;;5.53;;
3653;SDS011;70277;54.302;10.064;2024-02-26T13:21:18;6.40;;;5.00;;
3653;SDS011;70277;54.302;10.064;2024-02-26T13:23:48;7.38;;;5.00;;
3653;SDS011;70277;54.302;10.064;2024-02-26T13:26:16;6.53;;;5.00;;
3653;SDS011;70277;54.302;10.064;2024-02-26T13:28:43;8.70;;;5.10;;
3653;SDS011;70277;54.302;10.064;2024-02-26T13:31:09;7.65;;;5.50;;
3653;SDS011;70277;54.302;10.064;2024-02-26T13:33:36;9.45;;;5.70;;
3653;SDS011;70277;54.302;10.064;2024-02-26T13:36:03;7.55;;;5.38;;
3653;SDS011;70277;54.302;10.064;2024-02-26T13:38:30;8.05;;;5.40;;
3653;SDS011;70277;54.302;10.064;2024-02-26T13:40:57;7.55;;;5.07;;
3653;SDS011;70277;54.302;10.064;2024-02-26T13:43:23;7.78;;;5.68;;
3653;SDS011;70277;54.302;10.064;2024-02-26T13:45:50;8.13;;;6.05;;
3653;SDS011;70277;54.302;10.064;2024-02-26T13:48:17;6.57;;;5.30;;
3653;SDS011;70277;54.302;10.064;2024-02-26T13:50:44;9.63;;;6.32;;
3653;SDS011;70277;54.302;10.064;2024-02-26T13:53:12;10.60;;;6.47;;
3653;SDS011;70277;54.302;10.064;2024-02-26T13:55:40;8.68;;;5.88;;
3653;SDS011;70277;54.302;10.064;2024-02-26T13:58:11;10.05;;;7.10;;
3653;SDS011;70277;54.302;10.064;2024-02-26T14:00:39;8.77;;;6.28;;
3653;SDS011;70277;54.302;10.064;2024-02-26T14:03:08;7.28;;;5.65;;
3653;SDS011;70277;54.302;10.064;2024-02-26T14:05:35;9.55;;;6.25;;
3653;SDS011;70277;54.302;10.064;2024-02-26T14:08:02;8.13;;;5.63;;
3653;SDS011;70277;54.302;10.064;2024-02-26T14:10:29;8.10;;;6.05;;
3653;SDS011;70277;54.302;10.064;2024-02-26T14:12:57;9.10;;;6.40;;
3653;SDS011;70277;54.302;10.064;2024-02-26T14:15:24;10.07;;;6.43;;
3653;SDS011;70277;54.302;10.064;2024-02-26T14:17:52;10.07;;;5.55;;
3653;SDS011;70277;54.302;10.064;2024-02-26T14:20:23;9.15;;;6.00;;
3653;SDS011;70277;54.302;10.064;2024-02-26T14:22:50;8.25;;;6.13;;
3653;SDS011;70277;54.302;10.064;2024-02-26T14:25:21;9.80;;;6.85;;
3653;SDS011;70277;54.302;10.064;2024-02-26T14:27:48;7.88;;;5.78;;
3653;SDS011;70277;54.302;10.064;2024-02-26T14:30:15;10.77;;;7.03;;
3653;SDS011;70277;54.302;10.064;2024-02-26T14:32:41;9.60;;;6.40;;
3653;SDS011;70277;54.302;10.064;2024-02-26T14:35:08;10.18;;;6.40;;
3653;SDS011;70277;54.302;10.064;2024-02-26T14:37:42;13.23;;;6.35;;
3653;SDS011;70277;54.302;10.064;2024-02-26T14:40:13;11.02;;;7.28;;
3653;SDS011;70277;54.302;10.064;2024-02-26T14:42:40;10.70;;;6.72;;
3653;SDS011;70277;54.302;10.064;2024-02-26T14:45:07;8.63;;;5.78;;
3653;SDS011;70277;54.302;10.064;2024-02-26T14:47:35;11.27;;;6.88;;